Time;durP1;ratioP1;P1;durP2;ratioP2;P2;SDS_P1;SDS_P2;PMS_P1;PMS_P2;Temp;Humidity;BMP_temperature;BMP_pressure;BME280_temperature;BME280_humidity;BME280_pressure;Samples;Min_cycle;Max_cycle;Signal;HPM_P1;HPM_P2
2023/09/22 00:00:43;;;;;;;3.20;1.60;;;;;;;;;;5078900;28;20226;-67
2023/09/22 00:03:13;;;;;;;5.17;1.60;;;;;;;;;;5077316;28;20575;-67
2023/09/22 00:05:41;;;;;;;3.13;1.53;;;;;;;;;;5065143;28;20227;-67
2023/09/22 00:08:09;;;;;;;6.97;1.60;;;;;;;;;;5073542;28;20218;-67
2023/09/22 00:10:38;;;;;;;1.30;1.20;;;;;;;;;;5078516;28;20698;-69
2023/09/22 00:13:06;;;;;;;2.67;1.70;;;;;;;;;;5078814;28;20244;-69
2023/09/22 00:15:34;;;;;;;1.87;1.17;;;;;;;;;;5078563;28;20206;-69
2023/09/22 00:18:02;;;;;;;1.70;1.27;;;;;;;;;;5067515;28;20209;-66
2023/09/22 00:20:31;;;;;;;1.20;1.10;;;;;;;;;;5078171;28;20306;-69
2023/09/22 00:22:59;;;;;;;0.90;0.90;;;;;;;;;;5078188;28;20206;-67
2023/09/22 00:25:27;;;;;;;1.27;0.87;;;;;;;;;;5078605;28;20214;-68
2023/09/22 00:27:56;;;;;;;2.00;1.00;;;;;;;;;;5078467;28;20206;-68
2023/09/22 00:30:26;;;;;;;0.97;0.77;;;;;;;;;;5077837;28;20262;-69
2023/09/22 00:32:54;;;;;;;2.40;0.80;;;;;;;;;;5078470;28;20210;-68
2023/09/22 00:35:22;;;;;;;2.10;0.80;;;;;;;;;;5078131;28;20210;-67
2023/09/22 00:37:51;;;;;;;1.30;0.60;;;;;;;;;;5078404;28;20218;-69
2023/09/22 00:40:19;;;;;;;1.50;0.87;;;;;;;;;;5078093;28;20237;-69
2023/09/22 00:42:47;;;;;;;1.00;0.90;;;;;;;;;;5078050;28;20210;-69
2023/09/22 00:45:17;;;;;;;1.23;0.77;;;;;;;;;;5077972;28;20256;-69
2023/09/22 00:47:46;;;;;;;0.90;0.77;;;;;;;;;;5077927;28;20246;-69
2023/09/22 00:50:14;;;;;;;0.70;0.70;;;;;;;;;;5078022;28;20284;-68
2023/09/22 00:52:42;;;;;;;1.73;0.60;;;;;;;;;;5078390;28;20206;-68
2023/09/22 00:55:10;;;;;;;1.73;0.60;;;;;;;;;;5077951;28;20207;-69
2023/09/22 00:57:39;;;;;;;1.53;0.60;;;;;;;;;;5077820;28;20280;-68
2023/09/22 01:00:08;;;;;;;0.67;0.60;;;;;;;;;;5077698;28;20229;-69
2023/09/22 01:02:38;;;;;;;2.23;0.70;;;;;;;;;;5077751;28;20692;-67
2023/09/22 01:05:08;;;;;;;0.60;0.60;;;;;;;;;;5078065;28;20289;-67
2023/09/22 01:07:36;;;;;;;0.70;0.60;;;;;;;;;;5077570;28;20261;-68
2023/09/22 01:10:08;;;;;;;0.57;0.53;;;;;;;;;;5077565;28;20313;-68
2023/09/22 01:12:36;;;;;;;5.77;0.80;;;;;;;;;;5077882;28;20203;-67
2023/09/22 01:15:08;;;;;;;3.10;0.60;;;;;;;;;;5077676;28;20205;-67
2023/09/22 01:17:36;;;;;;;0.70;0.70;;;;;;;;;;5071360;28;20204;-68
2023/09/22 01:20:08;;;;;;;0.60;0.50;;;;;;;;;;5077870;28;20268;-68
2023/09/22 01:22:38;;;;;;;1.50;0.50;;;;;;;;;;5077574;28;20234;-68
2023/09/22 01:25:06;;;;;;;1.77;0.60;;;;;;;;;;5077793;28;20223;-68
2023/09/22 01:27:34;;;;;;;1.30;0.60;;;;;;;;;;5077590;28;20254;-68
2023/09/22 01:30:04;;;;;;;0.70;0.70;;;;;;;;;;5077493;28;20230;-68
2023/09/22 01:32:33;;;;;;;0.70;0.70;;;;;;;;;;5077593;28;20727;-67
2023/09/22 01:35:01;;;;;;;1.67;0.60;;;;;;;;;;5077680;28;20202;-68
2023/09/22 01:37:32;;;;;;;1.03;0.80;;;;;;;;;;5077433;28;20205;-68
2023/09/22 01:40:01;;;;;;;1.80;0.60;;;;;;;;;;5077497;28;20304;-68
2023/09/22 01:42:30;;;;;;;1.20;0.60;;;;;;;;;;5077288;28;20210;-69
2023/09/22 01:44:58;;;;;;;1.50;0.50;;;;;;;;;;5077265;28;20297;-69
2023/09/22 01:47:26;;;;;;;1.90;0.80;;;;;;;;;;5077558;28;20226;-69
2023/09/22 01:49:54;;;;;;;1.63;0.53;;;;;;;;;;5077446;28;20209;-67
2023/09/22 01:52:22;;;;;;;0.60;0.60;;;;;;;;;;5077550;28;20214;-69
2023/09/22 01:54:50;;;;;;;0.47;0.47;;;;;;;;;;5077419;28;20202;-67
2023/09/22 01:57:21;;;;;;;1.43;0.60;;;;;;;;;;5077218;28;20242;-67
2023/09/22 01:59:49;;;;;;;2.40;0.73;;;;;;;;;;5076913;28;20576;-67
2023/09/22 02:02:17;;;;;;;0.97;0.57;;;;;;;;;;5077151;28;20622;-67
2023/09/22 02:04:45;;;;;;;0.87;0.43;;;;;;;;;;5077158;28;20308;-67
2023/09/22 02:07:13;;;;;;;0.80;0.50;;;;;;;;;;5067281;28;20222;-67
2023/09/22 02:09:41;;;;;;;0.60;0.60;;;;;;;;;;5076106;28;20209;-68
2023/09/22 02:12:09;;;;;;;1.30;0.70;;;;;;;;;;5077433;28;20203;-68
2023/09/22 02:14:38;;;;;;;1.13;0.60;;;;;;;;;;5076934;28;20202;-67
2023/09/22 02:17:06;;;;;;;1.33;0.60;;;;;;;;;;5071426;28;20212;-69
2023/09/22 02:19:35;;;;;;;1.10;0.60;;;;;;;;;;5065095;28;20207;-67
2023/09/22 02:22:03;;;;;;;0.60;0.40;;;;;;;;;;5080734;28;20255;-68
2023/09/22 02:24:31;;;;;;;0.40;0.40;;;;;;;;;;5080985;28;20335;-68
2023/09/22 02:26:59;;;;;;;0.40;0.40;;;;;;;;;;5080630;28;20688;-68
2023/09/22 02:29:27;;;;;;;0.73;0.50;;;;;;;;;;5080665;28;20210;-68
2023/09/22 02:31:56;;;;;;;1.20;0.80;;;;;;;;;;5080637;28;20241;-68
2023/09/22 02:34:24;;;;;;;2.70;0.80;;;;;;;;;;5080933;28;20240;-68
2023/09/22 02:36:52;;;;;;;0.87;0.70;;;;;;;;;;5080456;28;20232;-68
2023/09/22 02:39:20;;;;;;;1.87;1.03;;;;;;;;;;5080384;28;20208;-68
2023/09/22 02:41:48;;;;;;;2.10;0.93;;;;;;;;;;5080618;28;20230;-68
2023/09/22 02:44:16;;;;;;;1.90;0.93;;;;;;;;;;5080117;28;20739;-68
2023/09/22 02:46:45;;;;;;;3.73;1.23;;;;;;;;;;5080234;28;20657;-68
2023/09/22 02:49:15;;;;;;;2.93;1.20;;;;;;;;;;5080652;28;20206;-68
2023/09/22 02:51:42;;;;;;;3.57;1.23;;;;;;;;;;5080375;28;20234;-68
2023/09/22 02:54:11;;;;;;;6.30;1.50;;;;;;;;;;5080171;28;20206;-68
2023/09/22 02:56:39;;;;;;;2.43;1.13;;;;;;;;;;5079958;28;20245;-69
2023/09/22 02:59:07;;;;;;;1.43;1.27;;;;;;;;;;5079887;28;20665;-68
2023/09/22 03:01:36;;;;;;;2.37;1.00;;;;;;;;;;5080176;28;20280;-68
2023/09/22 03:04:04;;;;;;;1.43;0.90;;;;;;;;;;5080116;28;20206;-66
2023/09/22 03:06:34;;;;;;;1.73;0.90;;;;;;;;;;5080154;28;20241;-67
2023/09/22 03:09:06;;;;;;;1.43;0.80;;;;;;;;;;5079852;28;20275;-67
2023/09/22 03:11:34;;;;;;;1.93;1.10;;;;;;;;;;5079967;28;20312;-68
2023/09/22 03:14:03;;;;;;;1.93;1.03;;;;;;;;;;5079804;28;20214;-67
2023/09/22 03:16:31;;;;;;;1.20;0.80;;;;;;;;;;5079126;28;20206;-68
2023/09/22 03:18:59;;;;;;;1.70;0.83;;;;;;;;;;5074723;28;20290;-68
2023/09/22 03:21:27;;;;;;;1.33;0.77;;;;;;;;;;5079967;28;20222;-67
2023/09/22 03:23:57;;;;;;;1.20;0.77;;;;;;;;;;5079711;28;20213;-67
2023/09/22 03:26:25;;;;;;;1.23;0.90;;;;;;;;;;5079628;28;20210;-68
2023/09/22 03:28:53;;;;;;;1.63;0.93;;;;;;;;;;5079438;28;20234;-68
2023/09/22 03:31:21;;;;;;;1.40;0.80;;;;;;;;;;5078789;28;20230;-67
2023/09/22 03:33:49;;;;;;;1.07;0.90;;;;;;;;;;5079469;28;20210;-67
2023/09/22 03:36:19;;;;;;;1.17;0.67;;;;;;;;;;5079488;28;20260;-67
2023/09/22 03:38:49;;;;;;;1.13;1.03;;;;;;;;;;5079518;28;20194;-67
2023/09/22 03:41:22;;;;;;;2.40;1.30;;;;;;;;;;5079569;28;20222;-67
2023/09/22 03:43:51;;;;;;;1.77;1.00;;;;;;;;;;5078677;28;20203;-67
2023/09/22 03:46:19;;;;;;;2.10;1.27;;;;;;;;;;5080000;28;20202;-69
2023/09/22 03:48:47;;;;;;;2.03;0.97;;;;;;;;;;5077116;28;20221;-68
2023/09/22 03:51:15;;;;;;;2.03;1.07;;;;;;;;;;5079678;28;20245;-67
2023/09/22 03:53:44;;;;;;;1.80;0.90;;;;;;;;;;5079476;28;20198;-68
2023/09/22 03:56:12;;;;;;;1.00;0.90;;;;;;;;;;5079621;28;20261;-67
2023/09/22 03:58:43;;;;;;;1.00;0.80;;;;;;;;;;5079318;28;20226;-67
2023/09/22 04:01:11;;;;;;;1.80;1.07;;;;;;;;;;5078770;28;20574;-67
2023/09/22 04:03:39;;;;;;;1.13;0.73;;;;;;;;;;5079317;28;20260;-67
2023/09/22 04:06:08;;;;;;;1.57;1.00;;;;;;;;;;5078996;28;20293;-68
2023/09/22 04:08:36;;;;;;;0.80;0.80;;;;;;;;;;5074100;28;20222;-67
2023/09/22 04:11:04;;;;;;;1.60;0.83;;;;;;;;;;5078824;28;20356;-68
2023/09/22 04:13:32;;;;;;;0.80;0.80;;;;;;;;;;5078792;28;20202;-68
2023/09/22 04:16:01;;;;;;;2.63;1.43;;;;;;;;;;5079186;28;20208;-68
2023/09/22 04:18:30;;;;;;;2.67;1.00;;;;;;;;;;5076361;28;20281;-68
2023/09/22 04:20:58;;;;;;;4.07;1.33;;;;;;;;;;5078001;28;20646;-68
2023/09/22 04:23:27;;;;;;;1.93;1.30;;;;;;;;;;5078754;28;20221;-67
2023/09/22 04:25:55;;;;;;;3.27;1.20;;;;;;;;;;5078668;28;20247;-67
2023/09/22 04:28:24;;;;;;;1.93;1.10;;;;;;;;;;5078211;28;20225;-67
2023/09/22 04:30:54;;;;;;;4.43;1.40;;;;;;;;;;5078571;28;20222;-68
2023/09/22 04:33:24;;;;;;;4.20;1.20;;;;;;;;;;5078281;28;20221;-66
2023/09/22 04:35:52;;;;;;;1.53;1.20;;;;;;;;;;5078780;28;20232;-68
2023/09/22 04:38:20;;;;;;;1.43;1.30;;;;;;;;;;5078307;28;20198;-66
2023/09/22 04:40:49;;;;;;;2.63;1.30;;;;;;;;;;5078499;28;20222;-69
2023/09/22 04:43:17;;;;;;;2.30;1.60;;;;;;;;;;5075362;28;20298;-68
2023/09/22 04:45:45;;;;;;;2.03;1.43;;;;;;;;;;5076459;28;20228;-68
2023/09/22 04:48:14;;;;;;;2.13;1.10;;;;;;;;;;5077865;28;20218;-66
2023/09/22 04:50:44;;;;;;;1.30;1.20;;;;;;;;;;5076118;28;20222;-67
2023/09/22 04:53:12;;;;;;;1.47;1.30;;;;;;;;;;5077580;28;20233;-67
2023/09/22 04:55:40;;;;;;;1.57;1.40;;;;;;;;;;5076782;28;20682;-67
2023/09/22 04:58:08;;;;;;;1.43;1.17;;;;;;;;;;5077236;28;20214;-66
2023/09/22 05:00:37;;;;;;;1.50;1.40;;;;;;;;;;5077478;28;20237;-66
2023/09/22 05:03:06;;;;;;;2.70;1.30;;;;;;;;;;5077357;28;20198;-69
2023/09/22 05:05:35;;;;;;;1.23;1.00;;;;;;;;;;5077257;28;20676;-69
2023/09/22 05:08:06;;;;;;;1.10;0.90;;;;;;;;;;5077687;28;20226;-67
2023/09/22 05:10:34;;;;;;;1.10;1.03;;;;;;;;;;5077645;28;20233;-68
2023/09/22 05:13:03;;;;;;;1.60;1.30;;;;;;;;;;5077517;28;20216;-67
2023/09/22 05:15:32;;;;;;;4.60;2.40;;;;;;;;;;5077424;28;20664;-69
2023/09/22 05:18:01;;;;;;;1.93;1.83;;;;;;;;;;5068442;28;20256;-68
2023/09/22 05:20:29;;;;;;;1.50;0.80;;;;;;;;;;5077536;28;20230;-68
2023/09/22 05:22:57;;;;;;;2.37;0.90;;;;;;;;;;5077583;28;20206;-68
2023/09/22 05:25:26;;;;;;;4.90;1.23;;;;;;;;;;5077491;28;20210;-68
2023/09/22 05:27:54;;;;;;;1.33;1.10;;;;;;;;;;5077307;28;20217;-68
2023/09/22 05:30:25;;;;;;;2.27;0.80;;;;;;;;;;5077091;28;20280;-69
2023/09/22 05:32:54;;;;;;;3.23;1.10;;;;;;;;;;5077511;28;20281;-68
2023/09/22 05:35:22;;;;;;;1.30;1.00;;;;;;;;;;5077813;28;20221;-68
2023/09/22 05:37:52;;;;;;;3.03;1.20;;;;;;;;;;5077323;28;20620;-68
2023/09/22 05:40:20;;;;;;;1.37;1.20;;;;;;;;;;5077264;28;20257;-68
2023/09/22 05:42:49;;;;;;;2.93;1.70;;;;;;;;;;5077535;28;20214;-68
2023/09/22 05:45:17;;;;;;;1.30;1.20;;;;;;;;;;5076655;28;20208;-68
2023/09/22 05:47:46;;;;;;;2.07;1.07;;;;;;;;;;5077377;28;20615;-68
2023/09/22 05:50:14;;;;;;;2.43;1.20;;;;;;;;;;5077383;28;20234;-68
2023/09/22 05:52:42;;;;;;;1.03;0.93;;;;;;;;;;5077646;28;20206;-68
2023/09/22 05:55:12;;;;;;;1.47;1.37;;;;;;;;;;5064707;28;20623;-69
2023/09/22 05:57:40;;;;;;;2.47;1.23;;;;;;;;;;5081918;28;20238;-68
2023/09/22 06:00:15;;;;;;;1.33;1.00;;;;;;;;;;5081300;28;20271;-68
2023/09/22 06:02:48;;;;;;;2.03;1.20;;;;;;;;;;5081421;28;20212;-68
2023/09/22 06:05:16;;;;;;;2.03;1.30;;;;;;;;;;5081059;28;20221;-68
2023/09/22 06:07:44;;;;;;;2.07;1.03;;;;;;;;;;5080977;28;20572;-68
2023/09/22 06:10:12;;;;;;;4.83;1.70;;;;;;;;;;5080813;28;20230;-68
2023/09/22 06:12:40;;;;;;;1.10;1.00;;;;;;;;;;5080835;28;20724;-68
2023/09/22 06:15:12;;;;;;;3.07;1.30;;;;;;;;;;5080638;28;20217;-68
2023/09/22 06:17:40;;;;;;;1.40;1.30;;;;;;;;;;5073307;28;20252;-66
2023/09/22 06:20:13;;;;;;;1.90;1.43;;;;;;;;;;5080810;28;20226;-65
2023/09/22 06:22:42;;;;;;;2.73;1.30;;;;;;;;;;5080871;28;20654;-63
2023/09/22 06:25:13;;;;;;;1.30;1.20;;;;;;;;;;5080859;28;20245;-67
2023/09/22 06:27:42;;;;;;;4.63;1.27;;;;;;;;;;5080893;28;20285;-66
2023/09/22 06:30:12;;;;;;;2.40;1.20;;;;;;;;;;5080348;28;20226;-66
2023/09/22 06:32:41;;;;;;;7.57;1.70;;;;;;;;;;5080588;28;20207;-65
2023/09/22 06:35:10;;;;;;;1.83;1.20;;;;;;;;;;5080335;28;20216;-66
2023/09/22 06:37:39;;;;;;;1.47;1.17;;;;;;;;;;5080431;28;20202;-65
2023/09/22 06:40:11;;;;;;;1.10;1.00;;;;;;;;;;5079506;28;20574;-66
2023/09/22 06:42:41;;;;;;;2.20;1.20;;;;;;;;;;5084854;28;20562;-65
2023/09/22 06:45:11;;;;;;;2.07;1.27;;;;;;;;;;5083467;28;20198;-63
2023/09/22 06:47:41;;;;;;;2.07;1.00;;;;;;;;;;5076637;28;20210;-63
2023/09/22 06:50:11;;;;;;;2.77;1.20;;;;;;;;;;5079684;28;20703;-64
2023/09/22 06:52:40;;;;;;;2.60;1.10;;;;;;;;;;5073741;28;20286;-63
2023/09/22 06:55:09;;;;;;;3.07;1.40;;;;;;;;;;5076332;28;20289;-63
2023/09/22 06:57:40;;;;;;;0.73;0.67;;;;;;;;;;5080124;28;20272;-65
2023/09/22 07:00:16;;;;;;;2.57;0.90;;;;;;;;;;5079456;28;20222;-63
2023/09/22 07:02:47;;;;;;;1.83;0.80;;;;;;;;;;5075422;28;20207;-63
2023/09/22 07:05:15;;;;;;;1.50;0.80;;;;;;;;;;5063506;28;20206;-64
2023/09/22 07:07:43;;;;;;;1.07;0.83;;;;;;;;;;5076132;28;20210;-63
2023/09/22 07:10:11;;;;;;;3.50;1.30;;;;;;;;;;5079572;28;20228;-64
2023/09/22 07:12:39;;;;;;;2.17;0.77;;;;;;;;;;5079829;28;20209;-65
2023/09/22 07:15:08;;;;;;;1.60;0.83;;;;;;;;;;5071679;28;20587;-65
2023/09/22 07:17:36;;;;;;;3.10;0.73;;;;;;;;;;5073970;28;20206;-65
2023/09/22 07:20:09;;;;;;;2.13;0.90;;;;;;;;;;5079604;28;20226;-64
2023/09/22 07:22:37;;;;;;;2.57;0.80;;;;;;;;;;5077645;28;20202;-63
2023/09/22 07:25:06;;;;;;;3.03;0.80;;;;;;;;;;5072126;28;20235;-62
2023/09/22 07:27:36;;;;;;;2.57;0.87;;;;;;;;;;5079856;28;20214;-64
2023/09/22 07:30:09;;;;;;;4.93;0.90;;;;;;;;;;5079353;28;20268;-63
2023/09/22 07:32:39;;;;;;;3.00;0.73;;;;;;;;;;5079849;28;20202;-63
2023/09/22 08:52:37;;;;;;;9.20;1.90;;;;;;;;;;5076794;28;20251;-64
2023/09/22 08:55:08;;;;;;;7.07;2.23;;;;;;;;;;5078003;28;20610;-62
2023/09/22 08:57:36;;;;;;;5.40;1.53;;;;;;;;;;5078324;28;20244;-63
2023/09/22 09:00:12;;;;;;;3.80;1.70;;;;;;;;;;5077370;28;20218;-62
2023/09/22 09:02:40;;;;;;;4.77;1.50;;;;;;;;;;5067218;28;20209;-62
2023/09/22 09:05:23;;;;;;;2.97;1.47;;;;;;;;;;5064974;28;20206;-62
2023/09/22 09:07:53;;;;;;;4.37;1.40;;;;;;;;;;5076355;28;20230;-62
2023/09/22 09:10:28;;;;;;;17.83;10.83;;;;;;;;;;5077758;28;20242;-63
2023/09/22 09:12:56;;;;;;;4.57;2.20;;;;;;;;;;5077367;28;20202;-63
2023/09/22 09:15:26;;;;;;;2.27;1.00;;;;;;;;;;5077659;28;20207;-62
2023/09/22 09:18:04;;;;;;;3.33;1.10;;;;;;;;;;5077863;28;20205;-62
2023/09/22 09:20:33;;;;;;;4.43;1.20;;;;;;;;;;5077784;28;20218;-63
2023/09/22 09:23:11;;;;;;;3.73;1.40;;;;;;;;;;5077718;28;20213;-63
2023/09/22 09:25:43;;;;;;;2.33;1.30;;;;;;;;;;5077734;28;20216;-63
2023/09/22 09:28:12;;;;;;;2.70;1.00;;;;;;;;;;5077670;28;20222;-64
2023/09/22 09:30:48;;;;;;;3.40;1.13;;;;;;;;;;5076865;28;20253;-64
2023/09/22 09:33:16;;;;;;;6.27;1.33;;;;;;;;;;5077573;28;20217;-63
2023/09/22 09:35:44;;;;;;;2.43;1.20;;;;;;;;;;5077462;28;20205;-63
2023/09/22 09:38:20;;;;;;;3.87;0.90;;;;;;;;;;5077342;28;20207;-62
2023/09/22 09:40:51;;;;;;;2.63;1.20;;;;;;;;;;5077748;28;20227;-63
2023/09/22 09:43:19;;;;;;;4.87;1.00;;;;;;;;;;5077455;28;20206;-63
2023/09/22 09:45:49;;;;;;;7.43;1.20;;;;;;;;;;5077668;28;20202;-64
2023/09/22 09:48:18;;;;;;;3.00;1.00;;;;;;;;;;5077538;28;20609;-64
2023/09/22 09:50:47;;;;;;;2.67;0.90;;;;;;;;;;5063748;28;20235;-65
2023/09/22 09:53:31;;;;;;;4.17;1.17;;;;;;;;;;5077086;28;20254;-62
2023/09/22 09:56:00;;;;;;;2.07;1.27;;;;;;;;;;5077680;28;20246;-62
2023/09/22 09:58:32;;;;;;;3.33;1.30;;;;;;;;;;5077211;28;20214;-63
2023/09/22 10:01:01;;;;;;;2.03;0.83;;;;;;;;;;5077454;28;20254;-63
2023/09/22 10:03:29;;;;;;;3.07;0.90;;;;;;;;;;5077196;28;20246;-64
2023/09/22 10:05:58;;;;;;;5.97;1.37;;;;;;;;;;5077572;28;20221;-62
2023/09/22 10:08:28;;;;;;;2.27;1.30;;;;;;;;;;5077114;28;20548;-62
2023/09/22 10:10:59;;;;;;;3.00;1.10;;;;;;;;;;5077138;28;20287;-63
2023/09/22 10:13:27;;;;;;;4.10;1.00;;;;;;;;;;5077230;28;20203;-63
2023/09/22 10:15:57;;;;;;;2.27;0.80;;;;;;;;;;5077441;28;20208;-62
2023/09/22 10:18:39;;;;;;;3.33;1.27;;;;;;;;;;5077378;28;20264;-63
2023/09/22 10:21:08;;;;;;;3.23;1.10;;;;;;;;;;5076848;28;20733;-63
2023/09/22 10:23:37;;;;;;;5.13;1.20;;;;;;;;;;5077032;28;20223;-62
2023/09/22 10:26:14;;;;;;;5.90;1.40;;;;;;;;;;5076926;28;20208;-62
2023/09/22 10:28:42;;;;;;;5.10;1.33;;;;;;;;;;5076686;28;20203;-65
2023/09/22 10:31:10;;;;;;;3.47;1.20;;;;;;;;;;5077126;28;20340;-64
2023/09/22 10:33:38;;;;;;;2.43;1.20;;;;;;;;;;5077170;28;20317;-64
2023/09/22 10:36:08;;;;;;;3.97;1.30;;;;;;;;;;5077248;28;20212;-64
2023/09/22 10:38:55;;;;;;;3.60;1.10;;;;;;;;;;5076736;28;20669;-64
2023/09/22 10:41:23;;;;;;;4.03;1.40;;;;;;;;;;5079016;28;20622;-64
2023/09/22 10:43:57;;;;;;;4.03;1.10;;;;;;;;;;5080145;28;20277;-64
2023/09/22 10:46:26;;;;;;;5.83;1.30;;;;;;;;;;5080344;28;20208;-65
2023/09/22 10:48:54;;;;;;;5.37;1.43;;;;;;;;;;5080416;28;20209;-64
2023/09/22 10:51:23;;;;;;;2.10;1.13;;;;;;;;;;5080346;28;20239;-64
2023/09/22 10:53:57;;;;;;;6.40;1.10;;;;;;;;;;5080140;28;20676;-64
2023/09/22 10:56:25;;;;;;;4.13;1.03;;;;;;;;;;5080499;28;20211;-64
2023/09/22 10:58:54;;;;;;;4.50;1.40;;;;;;;;;;5080203;28;20209;-64
2023/09/22 11:01:23;;;;;;;3.73;1.10;;;;;;;;;;5080190;28;20228;-64
2023/09/22 11:03:55;;;;;;;4.77;1.33;;;;;;;;;;5069471;28;20270;-64
2023/09/22 11:06:23;;;;;;;3.17;1.40;;;;;;;;;;5080087;28;20241;-64
2023/09/22 11:08:52;;;;;;;1.57;1.00;;;;;;;;;;5080054;28;20234;-63
2023/09/22 11:11:21;;;;;;;4.40;1.10;;;;;;;;;;5080070;28;20590;-64
2023/09/22 11:13:53;;;;;;;1.47;1.00;;;;;;;;;;5079657;28;20621;-64
2023/09/22 11:16:22;;;;;;;5.27;1.07;;;;;;;;;;5080060;28;20215;-64
2023/09/22 11:18:50;;;;;;;2.80;0.90;;;;;;;;;;5080084;28;20314;-64
2023/09/22 11:21:20;;;;;;;3.13;1.10;;;;;;;;;;5079949;28;20223;-64
2023/09/22 11:23:50;;;;;;;2.43;1.17;;;;;;;;;;5079841;28;20213;-64
2023/09/22 11:26:19;;;;;;;4.83;1.17;;;;;;;;;;5079857;28;20202;-64
2023/09/22 11:28:49;;;;;;;3.70;0.90;;;;;;;;;;5079616;28;20217;-64
2023/09/22 11:31:19;;;;;;;3.40;1.17;;;;;;;;;;5079683;28;20358;-64
2023/09/22 11:34:03;;;;;;;1.47;0.80;;;;;;;;;;5079812;28;20213;-64
2023/09/22 11:36:45;;;;;;;1.60;0.93;;;;;;;;;;5079410;28;20206;-64
2023/09/22 11:39:23;;;;;;;1.87;0.80;;;;;;;;;;5079529;28;20261;-64
2023/09/22 11:41:51;;;;;;;1.60;1.13;;;;;;;;;;5079713;28;20222;-63
2023/09/22 11:44:21;;;;;;;2.63;1.00;;;;;;;;;;5079084;28;20215;-64
2023/09/22 11:46:49;;;;;;;2.77;1.30;;;;;;;;;;5079413;28;20244;-63
2023/09/22 11:49:18;;;;;;;3.97;1.20;;;;;;;;;;5079498;28;20211;-63
2023/09/22 11:51:48;;;;;;;2.60;0.80;;;;;;;;;;5078630;28;20251;-63
2023/09/22 11:54:16;;;;;;;1.80;0.80;;;;;;;;;;5079274;28;20217;-63
2023/09/22 11:56:46;;;;;;;2.23;0.80;;;;;;;;;;5079378;28;20208;-63
2023/09/22 11:59:14;;;;;;;2.97;0.77;;;;;;;;;;5078868;28;20215;-62
2023/09/22 12:01:45;;;;;;;2.47;0.80;;;;;;;;;;5079059;28;20258;-62
2023/09/22 12:04:13;;;;;;;2.37;0.90;;;;;;;;;;5079156;28;20219;-62
2023/09/22 12:06:43;;;;;;;2.77;0.70;;;;;;;;;;5079014;28;20210;-62
2023/09/22 12:09:12;;;;;;;2.33;0.90;;;;;;;;;;5078953;28;20207;-62
2023/09/22 12:11:41;;;;;;;1.97;0.90;;;;;;;;;;5078748;28;20259;-62
2023/09/22 12:14:09;;;;;;;2.77;0.80;;;;;;;;;;5078709;28;20258;-63
2023/09/22 12:16:38;;;;;;;5.00;1.10;;;;;;;;;;5078685;28;20215;-63
2023/09/22 12:19:08;;;;;;;2.17;0.90;;;;;;;;;;5078854;28;20263;-63
2023/09/22 12:21:36;;;;;;;4.07;1.50;;;;;;;;;;5078469;28;20236;-63
2023/09/22 12:24:04;;;;;;;2.20;0.90;;;;;;;;;;5078326;28;20663;-64
2023/09/22 12:26:32;;;;;;;4.43;0.90;;;;;;;;;;5078468;28;20209;-64
2023/09/22 12:29:03;;;;;;;2.43;1.07;;;;;;;;;;5078140;28;20667;-64
2023/09/22 12:31:33;;;;;;;15.80;9.80;;;;;;;;;;5078487;28;20229;-64
2023/09/22 12:34:01;;;;;;;3.17;1.97;;;;;;;;;;5078254;28;20243;-63
2023/09/22 12:36:30;;;;;;;3.33;1.43;;;;;;;;;;5078477;28;20212;-65
2023/09/22 12:38:59;;;;;;;1.70;0.90;;;;;;;;;;5078012;28;20671;-64
2023/09/22 12:41:27;;;;;;;2.10;0.67;;;;;;;;;;5078010;28;20227;-64
2023/09/22 12:43:55;;;;;;;2.10;0.60;;;;;;;;;;5078091;28;20213;-64
2023/09/22 12:46:24;;;;;;;2.63;0.50;;;;;;;;;;5078095;28;20297;-65
2023/09/22 12:48:52;;;;;;;1.87;1.00;;;;;;;;;;5078157;28;20204;-63
2023/09/22 12:51:20;;;;;;;3.70;0.90;;;;;;;;;;5077963;28;20258;-64
2023/09/22 12:53:50;;;;;;;2.97;1.00;;;;;;;;;;5078046;28;20253;-64
2023/09/22 12:56:18;;;;;;;5.63;1.20;;;;;;;;;;5078453;28;20213;-63
2023/09/22 12:58:46;;;;;;;4.77;0.93;;;;;;;;;;5078025;28;20206;-63
2023/09/22 13:01:15;;;;;;;3.97;1.00;;;;;;;;;;5077658;28;20593;-63
2023/09/22 13:03:45;;;;;;;2.17;0.70;;;;;;;;;;5071728;28;20223;-64
2023/09/22 13:06:14;;;;;;;2.00;0.97;;;;;;;;;;5073164;28;20219;-63
2023/09/22 13:08:42;;;;;;;2.67;1.03;;;;;;;;;;5077927;28;20210;-64
2023/09/22 13:11:15;;;;;;;2.80;0.70;;;;;;;;;;5077620;28;20285;-64
2023/09/22 13:13:43;;;;;;;3.73;0.93;;;;;;;;;;5077579;28;20227;-63
2023/09/22 13:16:12;;;;;;;4.40;1.50;;;;;;;;;;5077610;28;20699;-64
2023/09/22 13:18:42;;;;;;;2.73;0.90;;;;;;;;;;5077656;28;20218;-64
2023/09/22 13:21:13;;;;;;;3.63;1.07;;;;;;;;;;5077460;28;20593;-64
2023/09/22 13:23:42;;;;;;;2.77;0.80;;;;;;;;;;5077708;28;20208;-63
2023/09/22 13:26:18;;;;;;;2.03;0.70;;;;;;;;;;5077556;28;20294;-64
2023/09/22 13:28:46;;;;;;;1.30;1.03;;;;;;;;;;5077240;28;20211;-64
2023/09/22 13:31:15;;;;;;;2.30;0.70;;;;;;;;;;5077475;28;20228;-63
2023/09/22 13:33:43;;;;;;;2.00;1.20;;;;;;;;;;5077659;28;20229;-64
2023/09/22 13:36:17;;;;;;;1.77;0.97;;;;;;;;;;5077835;28;20202;-63
2023/09/22 13:38:46;;;;;;;2.03;0.93;;;;;;;;;;5077219;28;20208;-64
2023/09/22 13:41:16;;;;;;;2.60;1.00;;;;;;;;;;5077322;28;20716;-64
2023/09/22 13:43:44;;;;;;;3.30;2.57;;;;;;;;;;5077247;28;20627;-63
2023/09/22 13:46:13;;;;;;;2.33;1.20;;;;;;;;;;5077316;28;20226;-63
2023/09/22 13:48:42;;;;;;;2.47;1.13;;;;;;;;;;5077532;28;20212;-64
2023/09/22 13:51:10;;;;;;;1.70;0.80;;;;;;;;;;5077455;28;20225;-64
2023/09/22 13:53:38;;;;;;;2.40;0.93;;;;;;;;;;5077457;28;20232;-64
2023/09/22 13:56:13;;;;;;;7.23;1.13;;;;;;;;;;5077405;28;20281;-63
2023/09/22 13:58:43;;;;;;;4.17;1.30;;;;;;;;;;5077282;28;20202;-63
2023/09/22 14:01:11;;;;;;;9.23;2.70;;;;;;;;;;5077046;28;20229;-63
2023/09/22 14:03:40;;;;;;;3.60;1.53;;;;;;;;;;5077444;28;20261;-62
2023/09/22 14:06:12;;;;;;;4.13;1.33;;;;;;;;;;5077233;28;20278;-62
2023/09/22 14:08:41;;;;;;;1.90;1.00;;;;;;;;;;5077510;28;20210;-63
2023/09/22 14:11:10;;;;;;;2.27;1.53;;;;;;;;;;5076951;28;20233;-63
2023/09/22 14:13:40;;;;;;;2.77;1.33;;;;;;;;;;5077467;28;20284;-62
2023/09/22 14:16:10;;;;;;;0.87;0.80;;;;;;;;;;5079241;28;20206;-62
2023/09/22 14:18:39;;;;;;;1.80;0.53;;;;;;;;;;5081220;28;20237;-62
2023/09/22 14:21:08;;;;;;;0.70;0.63;;;;;;;;;;5080645;28;21088;-62
2023/09/22 14:23:36;;;;;;;2.73;0.63;;;;;;;;;;5080849;28;20198;-62
2023/09/22 14:26:04;;;;;;;1.67;0.50;;;;;;;;;;5080967;28;20210;-62
2023/09/22 14:28:34;;;;;;;1.37;0.60;;;;;;;;;;5080474;28;20579;-62
2023/09/22 14:31:04;;;;;;;0.77;0.70;;;;;;;;;;5080886;28;20222;-62
2023/09/22 14:33:35;;;;;;;1.50;0.60;;;;;;;;;;5080615;28;20233;-64
2023/09/22 14:36:06;;;;;;;1.17;0.77;;;;;;;;;;5080473;28;20259;-62
2023/09/22 14:38:34;;;;;;;1.53;0.70;;;;;;;;;;5080590;28;20214;-64
2023/09/22 14:41:06;;;;;;;1.07;0.90;;;;;;;;;;5080497;28;20258;-63
2023/09/22 14:43:34;;;;;;;2.07;0.73;;;;;;;;;;5080321;28;20207;-63
2023/09/22 14:46:03;;;;;;;0.90;0.73;;;;;;;;;;5080450;28;20578;-62
2023/09/22 14:48:31;;;;;;;4.23;0.57;;;;;;;;;;5080652;28;20293;-63
2023/09/22 14:51:02;;;;;;;1.33;0.97;;;;;;;;;;5080302;28;20222;-63
2023/09/22 14:53:31;;;;;;;2.67;0.73;;;;;;;;;;5079943;28;20239;-63
2023/09/22 14:55:59;;;;;;;1.43;0.67;;;;;;;;;;5080039;28;20667;-63
2023/09/22 14:58:27;;;;;;;1.53;0.90;;;;;;;;;;5080039;28;20210;-62
2023/09/22 15:00:55;;;;;;;0.97;0.80;;;;;;;;;;5079876;28;20222;-63
2023/09/22 15:03:23;;;;;;;2.57;0.70;;;;;;;;;;5079928;28;20210;-62
2023/09/22 15:05:51;;;;;;;1.00;0.80;;;;;;;;;;5070369;28;20575;-64
2023/09/22 15:08:21;;;;;;;0.87;0.70;;;;;;;;;;5065310;28;20206;-64
2023/09/22 15:10:54;;;;;;;2.63;0.80;;;;;;;;;;5062326;28;20245;-64
2023/09/22 15:13:23;;;;;;;2.07;0.77;;;;;;;;;;5075747;28;20230;-65
2023/09/22 15:15:51;;;;;;;1.33;1.00;;;;;;;;;;5079160;28;20229;-66
2023/09/22 15:18:19;;;;;;;3.13;0.80;;;;;;;;;;5079769;28;20240;-64
2023/09/22 15:20:47;;;;;;;2.10;0.60;;;;;;;;;;5079804;28;20237;-63
2023/09/22 15:23:15;;;;;;;1.07;0.70;;;;;;;;;;5077780;28;20240;-65
2023/09/22 15:25:49;;;;;;;0.87;0.60;;;;;;;;;;5079422;28;20217;-64
2023/09/22 15:28:17;;;;;;;0.60;0.60;;;;;;;;;;5068351;28;20626;-65
2023/09/22 15:30:45;;;;;;;1.57;0.90;;;;;;;;;;5079671;28;20313;-64
2023/09/22 15:33:14;;;;;;;1.17;0.90;;;;;;;;;;5079183;28;20230;-63
2023/09/22 15:35:42;;;;;;;1.00;0.80;;;;;;;;;;5079232;28;20233;-63
2023/09/22 15:38:12;;;;;;;2.67;0.80;;;;;;;;;;5079066;28;20214;-64
2023/09/22 15:40:55;;;;;;;0.70;0.70;;;;;;;;;;5078488;28;20261;-63
2023/09/22 15:43:25;;;;;;;0.27;0.23;;;;;;;;;;5078641;28;20214;-63
2023/09/22 15:45:54;;;;;;;0.97;0.23;;;;;;;;;;5079158;28;20198;-63
2023/09/22 15:48:23;;;;;;;0.20;0.17;;;;;;;;;;5078957;28;20251;-63
2023/09/22 15:50:52;;;;;;;0.40;0.40;;;;;;;;;;5078515;28;20625;-64
2023/09/22 15:53:21;;;;;;;0.30;0.30;;;;;;;;;;5078514;28;20800;-64
2023/09/22 15:55:49;;;;;;;0.40;0.40;;;;;;;;;;5078849;28;20212;-64
2023/09/22 15:58:18;;;;;;;0.30;0.30;;;;;;;;;;5076616;28;20608;-64
2023/09/22 16:00:48;;;;;;;0.97;0.43;;;;;;;;;;5078412;28;20290;-65
2023/09/22 16:03:17;;;;;;;0.37;0.30;;;;;;;;;;5076094;28;20207;-64
2023/09/22 16:05:46;;;;;;;1.10;0.40;;;;;;;;;;5065492;28;20570;-65
2023/09/22 16:08:14;;;;;;;0.57;0.57;;;;;;;;;;5078401;28;20614;-63
2023/09/22 16:10:43;;;;;;;0.30;0.30;;;;;;;;;;5078254;28;20229;-64
2023/09/22 16:13:12;;;;;;;0.63;0.47;;;;;;;;;;5078114;28;20610;-64